Time;durP1;ratioP1;P1;durP2;ratioP2;P2;SDS_P1;SDS_P2;PMS_P1;PMS_P2;Temp;Humidity;BMP_temperature;BMP_pressure;BME280_temperature;BME280_humidity;BME280_pressure;Samples;Min_cycle;Max_cycle;Signal;HPM_P1;HPM_P2
2022/08/31 00:04:40;;;;;;;7.97;7.22;;;;;;;23.20;100.00;-18371.84;5094246;28;20180;-61
2022/08/31 00:07:07;;;;;;;7.70;7.13;;;;;;;23.21;100.00;-18371.97;5094157;28;20219;-62
2022/08/31 00:09:35;;;;;;;7.60;6.97;;;;;;;23.10;100.00;-18369.47;5094219;28;20623;-62
2022/08/31 00:12:02;;;;;;;11.75;7.57;;;;;;;22.80;100.00;-18362.22;5094336;28;20635;-63
2022/08/31 00:14:29;;;;;;;6.93;6.60;;;;;;;22.72;100.00;-18360.44;5093851;28;20190;-61
2022/08/31 00:16:58;;;;;;;11.13;7.28;;;;;;;22.79;100.00;-18362.09;5094246;28;20184;-61
2022/08/31 00:19:25;;;;;;;8.43;7.57;;;;;;;22.69;100.00;-18359.72;5093829;28;20211;-61
2022/08/31 00:21:52;;;;;;;8.50;7.70;;;;;;;22.86;100.00;-18363.75;5094140;28;20172;-61
2022/08/31 00:24:19;;;;;;;12.27;8.32;;;;;;;23.01;100.00;-18367.22;5093670;28;20197;-61
2022/08/31 00:26:46;;;;;;;7.90;7.20;;;;;;;22.99;100.00;-18366.72;5093618;28;20275;-61
2022/08/31 00:29:14;;;;;;;8.23;7.15;;;;;;;23.06;100.00;-18368.50;5093872;28;20206;-61
2022/08/31 00:31:41;;;;;;;9.52;7.22;;;;;;;23.01;100.00;-18367.31;5093672;28;20199;-61
2022/08/31 00:34:09;;;;;;;17.65;7.38;;;;;;;23.16;100.00;-18370.78;5093589;28;20184;-61
2022/08/31 00:36:36;;;;;;;12.35;7.80;;;;;;;23.10;100.00;-18369.34;5093524;28;20181;-62
2022/08/31 00:39:05;;;;;;;11.70;7.78;;;;;;;23.28;100.00;-18373.50;5093439;28;20220;-61
2022/08/31 00:41:36;;;;;;;9.20;8.05;;;;;;;23.31;100.00;-18374.22;5093660;28;20573;-61
2022/08/31 00:44:07;;;;;;;10.20;8.02;;;;;;;23.35;100.00;-18375.28;5092480;28;20191;-62
2022/08/31 00:46:37;;;;;;;12.93;8.20;;;;;;;23.34;100.00;-18374.94;5093252;28;20243;-61
2022/08/31 00:49:07;;;;;;;10.98;9.15;;;;;;;23.37;100.00;-18375.63;5093618;28;20590;-61
2022/08/31 00:51:39;;;;;;;17.73;9.95;;;;;;;23.35;100.00;-18375.16;5091837;28;20206;-62
2022/08/31 00:54:08;;;;;;;25.17;11.13;;;;;;;23.24;100.00;-18372.66;5093316;28;20184;-61
2022/08/31 00:56:36;;;;;;;22.10;11.30;;;;;;;23.14;100.00;-18370.41;5093429;28;20643;-61
2022/08/31 00:59:03;;;;;;;29.98;10.85;;;;;;;22.90;100.00;-18364.72;5093153;28;20212;-62
2022/08/31 01:01:30;;;;;;;17.52;10.48;;;;;;;23.11;100.00;-18369.69;5093350;28;20263;-62
2022/08/31 01:03:58;;;;;;;18.30;10.23;;;;;;;23.14;100.00;-18370.41;5093268;28;20189;-62
2022/08/31 01:06:26;;;;;;;24.55;10.70;;;;;;;23.19;100.00;-18371.59;5093308;28;20184;-63
2022/08/31 01:08:57;;;;;;;22.40;10.60;;;;;;;23.22;100.00;-18372.19;5093020;28;20191;-61
2022/08/31 01:11:25;;;;;;;30.90;9.57;;;;;;;23.21;100.00;-18371.97;5092807;28;20184;-62
2022/08/31 01:13:52;;;;;;;10.65;9.25;;;;;;;23.06;100.00;-18368.50;5093100;28;20354;-61
2022/08/31 01:16:24;;;;;;;19.65;9.65;;;;;;;23.20;100.00;-18371.84;5092841;28;20188;-61
2022/08/31 01:18:53;;;;;;;16.38;9.77;;;;;;;23.12;100.00;-18369.94;5092992;28;20188;-61
2022/08/31 01:21:26;;;;;;;24.70;9.80;;;;;;;23.06;100.00;-18368.41;5092615;28;20194;-61
2022/08/31 01:23:57;;;;;;;23.58;10.57;;;;;;;22.89;100.00;-18364.47;5093088;28;20655;-62
2022/08/31 01:26:28;;;;;;;18.50;8.73;;;;;;;23.07;100.00;-18368.75;5092914;28;20184;-61
2022/08/31 01:28:59;;;;;;;17.20;9.30;;;;;;;23.09;100.00;-18369.22;5092903;28;20649;-61
2022/08/31 01:31:31;;;;;;;22.52;9.18;;;;;;;23.17;100.00;-18371.13;5092744;28;20183;-61
2022/08/31 01:33:57;;;;;;;18.45;9.68;;;;;;;23.22;100.00;-18372.19;5092367;28;20271;-61
2022/08/31 01:36:26;;;;;;;15.52;9.40;;;;;;;23.29;100.00;-18373.75;5092843;28;20206;-61
2022/08/31 01:38:53;;;;;;;10.98;8.50;;;;;;;23.31;100.00;-18374.31;5092623;28;20196;-62
2022/08/31 01:41:22;;;;;;;13.35;8.75;;;;;;;23.25;100.00;-18372.91;5092359;28;20195;-61
2022/08/31 01:43:49;;;;;;;12.15;8.93;;;;;;;23.39;100.00;-18376.09;5092313;28;20183;-61
2022/08/31 01:46:16;;;;;;;13.93;8.40;;;;;;;23.40;100.00;-18376.34;5091916;28;20227;-61
2022/08/31 01:48:44;;;;;;;21.25;8.70;;;;;;;23.49;100.00;-18378.47;5092387;28;20200;-60
2022/08/31 01:51:14;;;;;;;21.02;8.73;;;;;;;23.54;100.00;-18379.66;5091191;28;20180;-62
2022/08/31 01:53:41;;;;;;;13.13;8.65;;;;;;;23.57;100.00;-18380.50;5091904;28;20194;-61
2022/08/31 01:56:11;;;;;;;9.68;7.70;;;;;;;23.58;100.00;-18380.63;5092374;28;20207;-61
2022/08/31 01:58:40;;;;;;;14.30;8.27;;;;;;;23.56;100.00;-18380.16;5092292;28;20180;-61
2022/08/31 02:01:07;;;;;;;17.35;9.07;;;;;;;23.54;100.00;-18379.66;5091805;28;20203;-61
2022/08/31 02:03:34;;;;;;;16.73;8.10;;;;;;;23.52;100.00;-18379.19;5092135;28;20645;-61
2022/08/31 02:06:07;;;;;;;13.95;7.88;;;;;;;23.47;100.00;-18378.13;5092100;28;20184;-61
2022/08/31 02:08:34;;;;;;;21.13;9.10;;;;;;;23.41;100.00;-18376.59;5091755;28;20184;-61
2022/08/31 02:11:01;;;;;;;17.08;8.63;;;;;;;23.33;100.00;-18374.69;5092063;28;20184;-61
2022/08/31 02:13:28;;;;;;;9.70;8.43;;;;;;;23.26;100.00;-18373.03;5091811;28;20194;-61
2022/08/31 02:15:56;;;;;;;9.15;8.02;;;;;;;23.12;100.00;-18369.81;5091786;28;20191;-62
2022/08/31 02:18:23;;;;;;;21.85;9.20;;;;;;;23.18;100.00;-18371.34;5091665;28;20191;-61
2022/08/31 02:20:50;;;;;;;17.08;8.93;;;;;;;23.21;100.00;-18372.06;5092021;28;20670;-61
2022/08/31 02:23:17;;;;;;;10.88;8.05;;;;;;;23.39;100.00;-18376.22;5091896;28;20586;-61
2022/08/31 02:25:44;;;;;;;12.27;7.72;;;;;;;23.44;100.00;-18377.28;5091674;28;20190;-61
2022/08/31 02:28:12;;;;;;;10.50;7.82;;;;;;;23.45;100.00;-18377.53;5091563;28;20188;-62
2022/08/31 02:30:41;;;;;;;13.75;7.30;;;;;;;23.44;100.00;-18377.28;5090369;28;20184;-61
2022/08/31 02:33:09;;;;;;;14.77;8.10;;;;;;;23.44;100.00;-18377.28;5091875;28;20196;-61
2022/08/31 02:35:37;;;;;;;10.75;7.15;;;;;;;23.51;100.00;-18378.97;5091776;28;20180;-61
2022/08/31 02:38:04;;;;;;;18.90;8.18;;;;;;;23.57;100.00;-18380.50;5091807;28;20642;-62
2022/08/31 02:40:31;;;;;;;20.63;8.23;;;;;;;23.46;100.00;-18377.78;5091376;28;20204;-61
2022/08/31 02:42:57;;;;;;;16.77;7.85;;;;;;;23.51;100.00;-18379.06;5091411;28;20203;-61
2022/08/31 02:45:25;;;;;;;14.55;7.22;;;;;;;23.50;100.00;-18378.84;5091263;28;20235;-61
2022/08/31 02:47:52;;;;;;;11.27;7.57;;;;;;;23.52;100.00;-18379.31;5091355;28;20192;-61
2022/08/31 02:50:20;;;;;;;15.20;7.70;;;;;;;23.45;100.00;-18377.66;5091732;28;20184;-61
2022/08/31 02:52:48;;;;;;;8.95;7.13;;;;;;;23.52;100.00;-18379.19;5091385;28;20192;-61
2022/08/31 02:55:16;;;;;;;7.10;6.57;;;;;;;23.58;100.00;-18380.63;5091601;28;20188;-62
2022/08/31 02:57:43;;;;;;;26.10;9.27;;;;;;;23.28;100.00;-18373.63;5091605;28;20237;-61
2022/08/31 03:00:12;;;;;;;17.88;9.18;;;;;;;23.19;100.00;-18371.59;5091868;28;20848;-62
2022/08/31 03:02:39;;;;;;;17.15;9.30;;;;;;;22.98;100.00;-18366.63;5091400;28;20185;-61
2022/08/31 03:05:08;;;;;;;16.65;9.35;;;;;;;22.93;100.00;-18365.31;5091558;28;20627;-61
2022/08/31 03:07:38;;;;;;;20.80;9.68;;;;;;;22.73;100.00;-18360.69;5094988;28;20219;-62
2022/08/31 03:10:07;;;;;;;25.02;9.18;;;;;;;22.75;100.00;-18361.16;5095471;28;20202;-61
2022/08/31 03:12:34;;;;;;;13.38;9.80;;;;;;;22.74;100.00;-18361.03;5095434;28;20210;-61
2022/08/31 03:15:01;;;;;;;14.88;9.50;;;;;;;22.72;100.00;-18360.56;5095211;28;20184;-61
2022/08/31 03:17:28;;;;;;;15.80;9.77;;;;;;;22.85;100.00;-18363.53;5095004;28;20180;-61
2022/08/31 03:20:03;;;;;;;20.60;8.77;;;;;;;22.85;100.00;-18363.41;5095001;28;20208;-60
2022/08/31 03:22:30;;;;;;;13.05;8.80;;;;;;;22.87;100.00;-18364.00;5095002;28;20279;-61
2022/08/31 03:24:59;;;;;;;15.02;9.05;;;;;;;22.89;100.00;-18364.47;5095233;28;20309;-61
2022/08/31 03:27:26;;;;;;;13.90;9.93;;;;;;;22.90;100.00;-18364.72;5094805;28;20279;-61
2022/08/31 03:29:53;;;;;;;16.15;9.10;;;;;;;22.80;100.00;-18362.34;5094917;28;20176;-61
2022/08/31 03:32:20;;;;;;;22.23;9.65;;;;;;;22.76;100.00;-18361.50;5095143;28;20206;-61
2022/08/31 03:34:47;;;;;;;25.35;10.25;;;;;;;22.71;100.00;-18360.19;5094866;28;20188;-61
2022/08/31 03:37:14;;;;;;;19.85;9.27;;;;;;;22.75;100.00;-18361.16;5094698;28;20184;-61
2022/08/31 03:39:41;;;;;;;26.13;9.63;;;;;;;22.73;100.00;-18360.69;5094522;28;20192;-62
2022/08/31 03:42:09;;;;;;;21.50;9.55;;;;;;;22.77;100.00;-18361.63;5094557;28;20188;-61
2022/08/31 03:44:36;;;;;;;23.00;10.15;;;;;;;22.81;100.00;-18362.47;5094489;28;20192;-61
2022/08/31 03:47:03;;;;;;;15.25;9.05;;;;;;;22.82;100.00;-18362.69;5094489;28;20613;-61
2022/08/31 03:49:30;;;;;;;11.18;8.82;;;;;;;22.73;100.00;-18360.78;5094785;28;20188;-61
2022/08/31 03:51:57;;;;;;;20.30;10.07;;;;;;;22.69;100.00;-18359.72;5094506;28;20188;-61
2022/08/31 03:54:24;;;;;;;32.10;10.55;;;;;;;22.59;100.00;-18357.34;5094232;28;20192;-61
2022/08/31 03:56:51;;;;;;;25.48;9.63;;;;;;;22.50;100.00;-18355.22;5094634;28;20556;-60
2022/08/31 03:59:20;;;;;;;21.63;9.98;;;;;;;22.32;100.00;-18351.03;5094558;28;20195;-62
2022/08/31 04:01:46;;;;;;;25.45;9.95;;;;;;;22.47;100.00;-18354.50;5094619;28;20208;-60
2022/08/31 04:04:14;;;;;;;13.90;8.88;;;;;;;22.50;100.00;-18355.31;5094302;28;20207;-61
2022/08/31 04:06:42;;;;;;;15.40;9.18;;;;;;;22.54;100.00;-18356.28;5094080;28;20187;-61
2022/08/31 04:09:08;;;;;;;15.88;9.10;;;;;;;22.57;100.00;-18356.88;5094052;28;20190;-61
2022/08/31 04:11:39;;;;;;;15.77;9.23;;;;;;;22.63;100.00;-18358.28;5093912;28;20188;-61
2022/08/31 04:14:06;;;;;;;25.35;9.05;;;;;;;22.59;100.00;-18357.34;5093072;28;20180;-61
2022/08/31 04:16:36;;;;;;;17.50;9.15;;;;;;;22.64;100.00;-18358.66;5093820;28;20191;-62
2022/08/31 04:19:03;;;;;;;23.70;9.75;;;;;;;22.67;100.00;-18359.38;5093928;28;20184;-60
2022/08/31 04:21:30;;;;;;;19.35;9.20;;;;;;;22.57;100.00;-18356.88;5093991;28;20204;-61
2022/08/31 04:23:58;;;;;;;16.98;9.70;;;;;;;22.59;100.00;-18357.47;5093703;28;20180;-62
2022/08/31 04:26:28;;;;;;;25.80;9.88;;;;;;;22.51;100.00;-18355.56;5093944;28;20624;-61
2022/08/31 04:28:55;;;;;;;18.35;9.98;;;;;;;22.57;100.00;-18357.00;5093864;28;20200;-61
2022/08/31 04:31:24;;;;;;;23.88;10.52;;;;;;;22.55;100.00;-18356.50;5093887;28;20184;-61
2022/08/31 04:33:52;;;;;;;22.80;9.30;;;;;;;22.54;100.00;-18356.28;5093650;28;20190;-62
2022/08/31 04:36:22;;;;;;;9.05;8.10;;;;;;;22.56;100.00;-18356.75;5093905;28;20657;-62
2022/08/31 04:38:52;;;;;;;12.43;7.40;;;;;;;22.69;100.00;-18359.72;5093880;28;20180;-53
2022/08/31 04:41:22;;;;;;;6.82;6.20;;;;;;;22.67;100.00;-18359.38;5093707;28;20204;-61
2022/08/31 04:43:51;;;;;;;6.45;5.80;;;;;;;22.68;100.00;-18359.47;5093416;28;20279;-61
2022/08/31 04:46:20;;;;;;;9.75;6.53;;;;;;;22.76;100.00;-18361.38;5093364;28;20227;-60
2022/08/31 04:48:47;;;;;;;7.05;6.40;;;;;;;22.53;100.00;-18356.03;5093668;28;20180;-62
2022/08/31 04:51:18;;;;;;;8.90;6.22;;;;;;;22.59;100.00;-18357.34;5093221;28;20188;-61
2022/08/31 04:53:45;;;;;;;12.05;6.40;;;;;;;22.67;100.00;-18359.25;5093390;28;20214;-61
2022/08/31 04:56:14;;;;;;;13.73;6.50;;;;;;;22.81;100.00;-18362.47;5093121;28;20188;-62
2022/08/31 04:58:41;;;;;;;23.70;8.13;;;;;;;23.03;100.00;-18367.81;5093534;28;20183;-60
2022/08/31 05:01:10;;;;;;;15.07;7.32;;;;;;;23.13;100.00;-18370.16;5093390;28;20665;-61
2022/08/31 05:03:37;;;;;;;18.42;8.23;;;;;;;23.02;100.00;-18367.44;5093392;28;20352;-60
2022/08/31 05:06:06;;;;;;;17.95;8.93;;;;;;;23.37;100.00;-18375.63;5093037;28;20195;-61
2022/08/31 05:08:34;;;;;;;25.20;9.35;;;;;;;23.34;100.00;-18374.94;5093347;28;20642;-62
2022/08/31 05:11:09;;;;;;;30.00;11.52;;;;;;;23.34;100.00;-18374.94;5092862;28;20190;-61
2022/08/31 05:13:37;;;;;;;16.48;11.75;;;;;;;23.10;100.00;-18369.47;5093536;28;20264;-61
2022/08/31 05:16:04;;;;;;;32.05;12.63;;;;;;;23.01;100.00;-18367.31;5089156;28;20196;-61
2022/08/31 05:18:31;;;;;;;28.98;14.38;;;;;;;22.87;100.00;-18364.00;5092296;28;20302;-61
2022/08/31 05:21:07;;;;;;;29.27;15.65;;;;;;;22.68;100.00;-18359.59;5092489;28;20295;-61
2022/08/31 05:23:36;;;;;;;29.38;16.92;;;;;;;22.81;100.00;-18362.56;5092545;28;20202;-61
2022/08/31 05:26:03;;;;;;;39.35;17.13;;;;;;;22.68;100.00;-18359.59;5092980;28;20558;-60
2022/08/31 05:28:32;;;;;;;24.15;16.17;;;;;;;22.75;100.00;-18361.28;5092312;28;20210;-61
2022/08/31 05:30:59;;;;;;;29.08;16.13;;;;;;;22.84;100.00;-18363.28;5092618;28;20256;-61
2022/08/31 05:33:26;;;;;;;31.80;17.70;;;;;;;22.88;100.00;-18364.25;5091434;28;20674;-60
2022/08/31 05:35:53;;;;;;;23.88;13.00;;;;;;;22.89;100.00;-18364.47;5091200;28;20181;-61
2022/08/31 05:38:19;;;;;;;28.60;13.10;;;;;;;;;;5092625;28;20639;-62
2022/08/31 05:40:52;;;;;;;23.27;13.00;;;;;;;22.86;100.00;-18363.75;5092580;28;20203;-61
2022/08/31 05:43:19;;;;;;;26.60;11.95;;;;;;;22.89;100.00;-18364.34;5092351;28;20650;-61
2022/08/31 05:45:46;;;;;;;23.20;11.95;;;;;;;22.99;100.00;-18366.84;5091989;28;20238;-62
2022/08/31 05:48:13;;;;;;;23.42;12.02;;;;;;;23.20;100.00;-18371.84;5092189;28;20275;-60
2022/08/31 05:50:39;;;;;;;37.47;12.15;;;;;;;23.34;100.00;-18375.03;5092441;28;20184;-62
2022/08/31 05:53:07;;;;;;;38.78;12.30;;;;;;;23.51;100.00;-18379.06;5092272;28;20545;-61
2022/08/31 05:55:34;;;;;;;42.85;11.57;;;;;;;23.55;100.00;-18380.03;5092098;28;20191;-61
2022/08/31 05:58:02;;;;;;;31.15;10.93;;;;;;;23.76;100.00;-18384.78;5091862;28;20224;-61
2022/08/31 06:00:29;;;;;;;30.35;10.30;;;;;;;23.97;100.00;-18063.34;5091641;28;20191;-62
2022/08/31 06:02:56;;;;;;;25.23;11.30;;;;;;;24.11;100.00;-14492.81;5091755;28;20625;-61
2022/08/31 06:05:24;;;;;;;27.05;9.63;;;;;;;24.19;100.00;-13518.66;5091885;28;20192;-61
2022/08/31 06:07:51;;;;;;;28.73;12.48;;;;;;;24.18;100.00;-12867.97;5091976;28;20279;-62
2022/08/31 06:10:19;;;;;;;28.52;9.73;;;;;;;24.38;100.00;-10592.56;5091690;28;20270;-61
2022/08/31 06:12:47;;;;;;;33.55;10.10;;;;;;;24.45;100.00;-8313.19;5091663;28;20180;-62
2022/08/31 06:15:16;;;;;;;25.80;9.48;;;;;;;24.47;100.00;-7009.59;5091840;28;20233;-61
2022/08/31 06:17:44;;;;;;;27.08;9.25;;;;;;;24.52;100.00;-5705.50;5089631;28;20188;-61
2022/08/31 06:20:11;;;;;;;29.52;8.90;;;;;;;24.67;100.00;-4400.78;5082530;28;20215;-61
2022/08/31 06:22:46;;;;;;;29.90;9.10;;;;;;;24.58;100.00;-1789.09;5091864;28;20208;-61
2022/08/31 06:25:18;;;;;;;29.85;8.93;;;;;;;24.86;100.00;1480.56;5091662;28;20259;-61
2022/08/31 06:27:49;;;;;;;18.33;8.32;;;;;;;24.93;100.00;7046.31;5091574;28;20222;-62
2022/08/31 06:30:20;;;;;;;15.27;7.60;;;;;;;24.97;100.00;7702.41;5091873;28;20222;-60
2022/08/31 06:32:47;;;;;;;24.63;7.90;;;;;;;25.09;100.00;9015.91;5092661;28;20210;-60
2022/08/31 06:35:15;;;;;;;20.83;7.43;;;;;;;25.16;100.00;15254.19;5091916;28;20184;-60
2022/08/31 06:37:41;;;;;;;16.85;7.88;;;;;;;25.31;100.00;18217.91;5091584;28;20207;-60
2022/08/31 06:40:09;;;;;;;20.65;7.35;;;;;;;25.26;100.00;22494.88;5092004;28;20192;-60
2022/08/31 06:42:36;;;;;;;24.70;8.77;;;;;;;25.26;100.00;24801.28;5095608;28;20206;-61
2022/08/31 06:45:04;;;;;;;28.55;7.85;;;;;;;25.43;100.00;29427.28;5096327;28;20289;-60
2022/08/31 06:47:32;;;;;;;17.30;7.43;;;;;;;25.64;100.00;42673.84;5095851;28;20526;-61
2022/08/31 06:50:00;;;;;;;22.55;11.45;;;;;;;25.60;100.00;50636.22;5096076;28;20241;-59
2022/08/31 06:52:27;;;;;;;18.60;7.05;;;;;;;25.61;100.00;54959.81;5094495;28;20184;-62
2022/08/31 06:54:53;;;;;;;16.80;6.90;;;;;;;25.63;100.00;69633.84;5095853;28;20582;-62
2022/08/31 06:57:21;;;;;;;24.88;7.78;;;;;;;25.75;100.00;62303.19;5096970;28;20649;-61
2022/08/31 06:59:50;;;;;;;26.90;8.85;;;;;;;26.07;100.00;59001.41;5095513;28;20192;-59
2022/08/31 07:02:17;;;;;;;33.42;13.30;;;;;;;25.82;100.00;38710.03;5095734;28;20208;-59
2022/08/31 07:04:46;;;;;;;34.08;14.85;;;;;;;25.65;100.00;30099.28;5086267;28;20193;-61
2022/08/31 07:07:13;;;;;;;28.15;16.42;;;;;;;25.62;100.00;33071.81;5084357;28;20201;-61
2022/08/31 07:09:41;;;;;;;37.55;18.05;;;;;;;25.70;100.00;33737.84;5073934;28;20299;-61
2022/08/31 07:12:08;;;;;;;31.58;16.88;;;;;;;25.87;100.00;38050.63;5075161;28;20204;-61
2022/08/31 07:14:36;;;;;;;36.72;15.77;;;;;;;25.54;100.00;43992.22;5074793;28;20181;-61
2022/08/31 07:17:03;;;;;;;46.03;15.70;;;;;;;25.92;100.00;42031.09;5074010;28;20212;-61
2022/08/31 07:19:33;;;;;;;28.70;12.45;;;;;;;26.10;100.00;62006.25;5074807;28;20185;-62
2022/08/31 07:22:06;;;;;;;26.85;10.80;;;;;;;26.31;100.00;104008.69;5074641;28;20200;-62
2022/08/31 07:24:34;;;;;;;37.67;9.07;;;;;;;26.50;100.00;135955.78;5074734;28;20189;-61
2022/08/31 07:27:04;;;;;;;15.32;6.88;;;;;;;26.46;100.00;152695.78;5074845;28;20295;-62
2022/08/31 07:29:38;;;;;;;16.25;6.90;;;;;;;26.57;100.00;152723.91;5074969;28;20181;-61
2022/08/31 07:32:07;;;;;;;20.13;7.60;;;;;;;26.36;100.00;152671.47;5075198;28;20203;-62
2022/08/31 07:34:35;;;;;;;25.60;8.05;;;;;;;26.44;100.00;152690.66;5074718;28;20200;-61
2022/08/31 07:42:37;;;;;;;46.53;14.55;;;;;;;26.74;100.00;112546.41;5074489;28;20200;-61
2022/08/31 07:45:06;;;;;;;39.45;11.93;;;;;;;26.87;100.00;146036.50;5074063;28;20180;-61
2022/08/31 07:47:34;;;;;;;36.05;12.07;;;;;;;26.99;100.00;152828.84;5074571;28;20195;-61
2022/08/31 07:50:01;;;;;;;35.33;11.23;;;;;;;27.07;100.00;152849.31;5089099;28;20206;-60
2022/08/31 07:52:31;;;;;;;26.15;8.45;;;;;;;27.17;100.00;152874.88;5086715;28;20206;-61
2022/08/31 07:55:06;;;;;;;23.33;8.63;;;;;;;27.28;100.00;152903.03;5094574;28;20187;-61
2022/08/31 07:57:36;;;;;;;33.33;10.50;;;;;;;27.51;100.00;152961.91;5094088;28;20270;-62
2022/08/31 08:00:07;;;;;;;28.92;9.95;;;;;;;27.61;100.00;152987.53;5094356;28;20188;-62
2022/08/31 08:02:37;;;;;;;19.58;8.63;;;;;;;27.67;100.00;153002.84;5094178;28;20215;-61
2022/08/31 08:05:06;;;;;;;30.13;10.55;;;;;;;27.67;100.00;153001.56;5094425;28;20192;-61
2022/08/31 08:07:35;;;;;;;31.15;9.68;;;;;;;27.94;100.00;153069.41;5094270;28;20189;-62
2022/08/31 08:10:04;;;;;;;24.15;9.55;;;;;;;28.16;100.00;153125.78;5093016;28;20184;-61
2022/08/31 08:12:35;;;;;;;22.08;8.48;;;;;;;28.02;100.00;153091.16;5074011;28;20665;-61
2022/08/31 08:15:04;;;;;;;16.60;7.78;;;;;;;28.31;100.00;153162.88;5073962;28;20193;-62
2022/08/31 08:17:32;;;;;;;12.98;6.55;;;;;;;28.45;100.00;153200.03;5073611;28;20699;-61
2022/08/31 08:19:59;;;;;;;13.52;6.03;;;;;;;28.37;100.00;153179.56;5074014;28;20651;-61
2022/08/31 08:22:27;;;;;;;16.38;6.30;;;;;;;28.48;100.00;153207.69;5072586;28;20204;-61
2022/08/31 08:24:56;;;;;;;22.77;7.03;;;;;;;28.77;100.00;153280.72;5073801;28;20466;-62
2022/08/31 08:27:23;;;;;;;18.27;6.25;;;;;;;29.04;100.00;153348.59;5072835;28;20627;-62
2022/08/31 08:29:50;;;;;;;16.00;6.50;;;;;;;29.28;100.00;153408.81;5073735;28;20196;-61
2022/08/31 08:32:17;;;;;;;17.52;7.05;;;;;;;29.55;100.00;153476.75;5073523;28;20275;-61
2022/08/31 08:34:45;;;;;;;19.38;6.40;;;;;;;29.78;100.00;153536.97;5073583;28;20188;-60
2022/08/31 08:37:12;;;;;;;9.75;6.18;;;;;;;29.56;100.00;153479.31;5073402;28;20254;-58
2022/08/31 08:39:41;;;;;;;23.33;8.82;;;;;;;29.82;100.00;153547.22;5073587;28;20204;-63
2022/08/31 08:42:12;;;;;;;18.60;7.88;;;;;;;30.02;100.00;153597.25;5073907;28;20291;-63
2022/08/31 08:44:41;;;;;;;22.05;6.63;;;;;;;29.92;100.00;153572.88;5073743;28;20189;-60
2022/08/31 08:47:13;;;;;;;18.65;6.65;;;;;;;29.82;100.00;153547.22;5073060;28;20275;-62
2022/08/31 08:49:48;;;;;;;12.60;6.28;;;;;;;29.90;100.00;153566.50;5073655;28;20624;-61
2022/08/31 08:52:22;;;;;;;16.05;6.10;;;;;;;29.77;100.00;153533.13;5073261;28;20184;-62
2022/08/31 08:54:51;;;;;;;9.57;5.80;;;;;;;29.87;100.00;153560.06;5073519;28;20185;-60
2022/08/31 08:57:26;;;;;;;13.82;5.82;;;;;;;29.48;100.00;153461.41;5073336;28;20639;-60
2022/08/31 08:59:56;;;;;;;14.43;6.40;;;;;;;29.30;100.00;153415.25;5073154;28;20212;-60
2022/08/31 09:02:31;;;;;;;14.25;5.72;;;;;;;29.49;100.00;153462.69;5077739;28;20724;-60
2022/08/31 09:05:34;;;;;;;21.63;6.38;;;;;;;29.92;100.00;153571.59;5081702;28;20204;-59
2022/08/31 09:08:16;;;;;;;22.05;6.00;;;;;;;29.76;100.00;153530.56;5072309;28;20669;-59
2022/08/31 09:10:51;;;;;;;13.35;6.18;;;;;;;29.49;100.00;153463.91;5073161;28;20642;-60
2022/08/31 09:13:35;;;;;;;12.23;5.15;;;;;;;29.89;100.00;153563.91;5085121;28;20195;-57
2022/08/31 09:16:19;;;;;;;25.58;5.70;;;;;;;30.17;100.00;153635.66;5085211;28;20228;-62
2022/08/31 09:18:51;;;;;;;22.75;6.22;;;;;;;30.76;100.00;153784.44;5093153;28;20176;-62
2022/08/31 09:21:22;;;;;;;13.82;5.35;;;;;;;31.10;100.00;153871.69;5083896;28;20271;-61
2022/08/31 09:24:00;;;;;;;20.65;5.78;;;;;;;31.34;100.00;153930.66;5072590;28;20289;-61
2022/08/31 09:26:31;;;;;;;21.60;5.75;;;;;;;31.46;100.00;153961.41;5072310;28;20227;-62
2022/08/31 09:29:02;;;;;;;8.35;5.28;;;;;;;31.76;100.00;154037.16;5081070;28;20670;-61
2022/08/31 09:31:37;;;;;;;12.15;5.25;;;;;;;32.04;100.00;154110.25;5087551;28;20223;-62
2022/08/31 09:34:11;;;;;;;17.15;5.80;;;;;;;32.30;100.00;154175.75;5093704;28;20199;-62
2022/08/31 09:36:39;;;;;;;18.48;5.82;;;;;;;32.76;100.00;154292.56;5092599;28;20230;-62
2022/08/31 09:39:19;;;;;;;14.07;5.43;;;;;;;32.14;99.19;154135.97;5092523;28;20228;-62
2022/08/31 09:41:48;;;;;;;19.42;6.60;;;;;;;32.01;100.00;154102.56;5087861;28;20231;-61
2022/08/31 09:44:29;;;;;;;35.80;7.28;;;;;;;31.72;100.00;154029.47;5092036;28;20257;-61
2022/08/31 09:46:59;;;;;;;17.98;6.72;;;;;;;31.51;100.00;153974.25;5092130;28;20735;-62
2022/08/31 09:49:29;;;;;;;18.05;7.38;;;;;;;31.65;100.00;154011.53;5092357;28;20245;-62
2022/08/31 09:52:20;;;;;;;17.42;7.22;;;;;;;31.59;100.00;153994.81;5092431;28;20714;-63
2022/08/31 09:55:16;;;;;;;26.00;7.40;;;;;;;31.45;100.00;153958.84;5092373;28;20196;-62
2022/08/31 09:57:52;;;;;;;20.45;6.53;;;;;;;31.29;100.00;153919.09;5092312;28;20272;-63
2022/08/31 10:00:38;;;;;;;15.35;6.43;;;;;;;31.13;100.00;153878.06;5091873;28;20184;-60
2022/08/31 10:03:19;;;;;;;16.00;6.75;;;;;;;30.95;100.00;153833.13;5083590;28;20223;-61
2022/08/31 10:05:47;;;;;;;19.15;6.90;;;;;;;30.83;100.00;153802.38;5084775;28;20577;-62
2022/08/31 10:08:32;;;;;;;15.38;6.22;;;;;;;30.74;100.00;153779.28;5083314;28;20252;-63
2022/08/31 10:11:09;;;;;;;24.67;6.90;;;;;;;30.57;100.00;153735.69;5091883;28;20689;-61
2022/08/31 10:13:39;;;;;;;21.33;7.35;;;;;;;30.35;100.00;153681.81;5092131;28;20184;-62
2022/08/31 10:16:16;;;;;;;17.88;6.15;;;;;;;30.44;100.00;153702.31;5091949;28;20714;-62
2022/08/31 10:18:56;;;;;;;11.10;6.22;;;;;;;30.66;100.00;153760.06;5092136;28;20184;-62
2022/08/31 10:21:30;;;;;;;12.80;6.43;;;;;;;30.60;100.00;153744.66;5091890;28;20223;-62
2022/08/31 10:24:09;;;;;;;16.98;6.57;;;;;;;30.90;100.00;153820.31;5090775;28;20194;-63
2022/08/31 10:26:45;;;;;;;10.00;6.18;;;;;;;31.02;100.00;153849.88;5091602;28;20184;-61
2022/08/31 10:29:16;;;;;;;14.85;6.43;;;;;;;30.92;100.00;153825.47;5091252;28;20253;-62
2022/08/31 10:31:48;;;;;;;14.93;6.82;;;;;;;31.00;100.00;153846.03;5092408;28;20191;-63
2022/08/31 10:37:11;;;;;;;17.70;5.95;;;;;;;31.43;100.00;153955.03;5091946;28;20669;-62
2022/08/31 10:39:45;;;;;;;14.45;5.75;;;;;;;31.60;100.00;153997.41;5091700;28;20570;-63
2022/08/31 10:42:18;;;;;;;18.42;5.68;;;;;;;31.79;100.00;154046.13;5091565;28;20665;-62
2022/08/31 10:44:55;;;;;;;15.50;6.53;;;;;;;32.12;100.00;154130.84;5091979;28;20184;-61
2022/08/31 10:47:27;;;;;;;12.25;5.45;;;;;;;32.17;100.00;154143.69;5090470;28;20609;-60
2022/08/31 10:49:56;;;;;;;12.35;5.90;;;;;;;32.43;100.00;154209.13;5091667;28;20241;-61
2022/08/31 10:52:31;;;;;;;19.35;5.65;;;;;;;32.37;100.00;154193.75;5091362;28;20638;-62
2022/08/31 10:55:08;;;;;;;15.82;6.10;;;;;;;32.71;99.05;154278.50;5091471;28;20187;-61
2022/08/31 10:57:41;;;;;;;8.60;5.45;;;;;;;32.78;100.00;154297.72;5090335;28;20586;-61
2022/08/31 11:00:40;;;;;;;14.68;5.45;;;;;;;32.33;100.00;154182.19;5091234;28;20301;-62
2022/08/31 11:03:16;;;;;;;16.63;5.50;;;;;;;31.57;100.00;153990.94;5091057;28;20200;-61
2022/08/31 11:05:48;;;;;;;15.75;5.85;;;;;;;31.36;100.00;153935.78;5092049;28;20187;-62
2022/08/31 11:08:54;;;;;;;14.55;5.85;;;;;;;31.11;100.00;153874.22;5091506;28;20275;-60
2022/08/31 11:11:35;;;;;;;10.40;6.20;;;;;;;30.79;100.00;153793.41;5081564;28;20204;-62
2022/08/31 11:14:23;;;;;;;23.17;6.65;;;;;;;30.33;100.00;153676.72;5091523;28;20595;-60
2022/08/31 11:17:17;;;;;;;15.82;6.32;;;;;;;30.12;100.00;153622.88;5091630;28;20295;-61
2022/08/31 11:20:20;;;;;;;13.52;5.97;;;;;;;30.16;100.00;153633.13;5091740;28;20531;-60
2022/08/31 11:23:16;;;;;;;12.35;5.95;;;;;;;30.01;100.00;153594.66;5070940;28;20223;-61
2022/08/31 11:26:33;;;;;;;10.70;5.85;;;;;;;30.31;100.00;153671.56;5091914;28;20565;-60
2022/08/31 11:29:12;;;;;;;15.07;5.57;;;;;;;30.34;100.00;153679.25;5053037;28;20208;-61
2022/08/31 11:31:39;;;;;;;20.42;6.00;;;;;;;30.37;100.00;153685.69;5052305;28;20284;-61
2022/08/31 11:34:12;;;;;;;17.17;6.15;;;;;;;30.60;100.00;153743.38;5075727;28;20658;-61
2022/08/31 11:36:59;;;;;;;17.67;6.32;;;;;;;30.59;100.00;153742.13;5095027;28;20184;-61